PWSweather.com
Personal Weather Stations
Station Observations
KNCGREEN1
Sw Greensboro, Greensboro, NC 27407

Sw GreensboroGreensboro, NC 27407

Lat: 36.04, Lon: -79.87

Elevation: 870

Station Type: Davis

http://www.weathertrek.com

Latest ConditionsUpdated 9:45:06 PM EDT Wednesday, May 27, 2015
Currently Today's Max Today's Min Today's Average
Temperature 72.7°F22.6°C 83.8°F28.8°C 69.8°F21.0°C 76.0°F24.4°C
Dew Point 66.2°F19.0°C 69.3°F20.7°C 64.9°F18.3°C 66.5°F19.2°C
Winds Calm Calm 5.0 mph SSE8.0 kmh SSE - 0.1 mph 0.2 kmh
Wind Gusts -- 7.0 mph11.3 kmh - -
Humidity 80% 87% 53% 74%
Pressure 30.10 in1019.3 mb 30.15 in1021.0 mb 30.04 in1017.3 mb -
Hour Temp Dew Point Humidity Winds Wind Gusts Pressure Precip Precip Rate Daily Precip Total
09:45 PM 72.7°F22.6°C 66.2°F19.0°C 80% Calm Calm -- 30.10 in1019.3 mb 0.00 in0.0 mm 0.00 in0.0 mm 0.04 in1.0 mm
09:40 PM 73.0°F22.8°C 66.5°F19.2°C 80% Calm Calm -- 30.09 in1019.0 mb 0.00 in0.0 mm 0.00 in0.0 mm 0.04 in1.0 mm
09:35 PM 73.2°F22.9°C 66.3°F19.1°C 79% Calm Calm -- 30.09 in1019.0 mb 0.00 in0.0 mm 0.00 in0.0 mm 0.04 in1.0 mm
09:30 PM 73.3°F22.9°C 66.0°F18.9°C 78% Calm Calm -- 30.09 in1019.0 mb 0.00 in0.0 mm 0.00 in0.0 mm 0.04 in1.0 mm
09:25 PM 73.5°F23.1°C 66.2°F19.0°C 78% Calm Calm -- 30.08 in1018.6 mb 0.00 in0.0 mm 0.00 in0.0 mm 0.04 in1.0 mm
09:20 PM 73.7°F23.2°C 66.4°F19.1°C 78% Calm Calm -- 30.08 in1018.6 mb 0.00 in0.0 mm 0.00 in0.0 mm 0.04 in1.0 mm
09:15 PM 73.9°F23.3°C 66.2°F19.0°C 77% Calm Calm -- 30.08 in1018.6 mb 0.00 in0.0 mm 0.00 in0.0 mm 0.04 in1.0 mm
09:10 PM 74.2°F23.4°C 66.5°F19.2°C 77% Calm Calm -- 30.08 in1018.6 mb 0.00 in0.0 mm 0.00 in0.0 mm 0.04 in1.0 mm
09:05 PM 74.4°F23.6°C 66.4°F19.1°C 76% Calm Calm -- 30.08 in1018.6 mb 0.00 in0.0 mm 0.00 in0.0 mm 0.04 in1.0 mm
09:00 PM 74.6°F23.7°C 66.5°F19.2°C 76% Calm Calm -- 30.08 in1018.6 mb 0.00 in0.0 mm 0.00 in0.0 mm 0.04 in1.0 mm
08:55 PM 74.9°F23.8°C 66.5°F19.2°C 75% Calm Calm 1.0 mph1.6 kmh 30.08 in1018.6 mb 0.00 in0.0 mm 0.00 in0.0 mm 0.04 in1.0 mm
08:50 PM 75.1°F23.9°C 66.3°F19.1°C 74% Calm Calm -- 30.08 in1018.6 mb 0.00 in0.0 mm 0.00 in0.0 mm 0.04 in1.0 mm
08:45 PM 75.3°F24.1°C 66.1°F18.9°C 73% Calm Calm -- 30.08 in1018.6 mb 0.00 in0.0 mm 0.00 in0.0 mm 0.04 in1.0 mm
08:40 PM 75.6°F24.2°C 66.3°F19.1°C 73% Calm Calm -- 30.07 in1018.3 mb 0.00 in0.0 mm 0.00 in0.0 mm 0.04 in1.0 mm
08:35 PM 75.8°F24.3°C 66.1°F18.9°C 72% Calm Calm -- 30.07 in1018.3 mb 0.00 in0.0 mm 0.00 in0.0 mm 0.04 in1.0 mm
08:30 PM 76.1°F24.5°C 66.0°F18.9°C 71% Calm Calm -- 30.07 in1018.3 mb 0.00 in0.0 mm 0.00 in0.0 mm 0.04 in1.0 mm
08:25 PM 76.5°F24.7°C 66.0°F18.9°C 70% Calm Calm -- 30.07 in1018.3 mb 0.00 in0.0 mm 0.00 in0.0 mm 0.04 in1.0 mm
08:20 PM 76.8°F24.9°C 66.3°F19.1°C 70% Calm Calm -- 30.07 in1018.3 mb 0.00 in0.0 mm 0.00 in0.0 mm 0.04 in1.0 mm
08:15 PM 77.2°F25.1°C 66.3°F19.1°C 69% Calm Calm -- 30.07 in1018.3 mb 0.00 in0.0 mm 0.00 in0.0 mm 0.04 in1.0 mm
08:10 PM 77.6°F25.3°C 66.2°F19.0°C 68% Calm Calm -- 30.06 in1017.9 mb 0.00 in0.0 mm 0.00 in0.0 mm 0.04 in1.0 mm
08:05 PM 77.9°F25.5°C 66.1°F18.9°C 67% Calm Calm -- 30.06 in1017.9 mb 0.00 in0.0 mm 0.00 in0.0 mm 0.04 in1.0 mm
08:00 PM 78.1°F25.6°C 66.3°F19.1°C 67% Calm Calm -- 30.06 in1017.9 mb 0.00 in0.0 mm 0.00 in0.0 mm 0.04 in1.0 mm
07:55 PM 78.5°F25.8°C 66.2°F19.0°C 66% Calm Calm 1.0 mph1.6 kmh 30.06 in1017.9 mb 0.00 in0.0 mm 0.00 in0.0 mm 0.04 in1.0 mm
07:50 PM 78.8°F26.0°C 66.1°F18.9°C 65% Calm Calm 1.0 mph1.6 kmh 30.06 in1017.9 mb 0.00 in0.0 mm 0.00 in0.0 mm 0.04 in1.0 mm
07:45 PM 79.2°F26.2°C 66.4°F19.1°C 65% Calm Calm -- 30.06 in1017.9 mb 0.00 in0.0 mm 0.00 in0.0 mm 0.04 in1.0 mm
07:40 PM 79.6°F26.4°C 66.8°F19.3°C 65% Calm Calm 2.0 mph3.2 kmh 30.05 in1017.6 mb 0.00 in0.0 mm 0.00 in0.0 mm 0.04 in1.0 mm
07:35 PM 79.8°F26.6°C 66.6°F19.2°C 64% Calm Calm 2.0 mph3.2 kmh 30.05 in1017.6 mb 0.00 in0.0 mm 0.00 in0.0 mm 0.04 in1.0 mm
07:30 PM 80.1°F26.7°C 66.4°F19.1°C 63% Calm Calm -- 30.05 in1017.6 mb 0.00 in0.0 mm 0.00 in0.0 mm 0.04 in1.0 mm
07:25 PM 80.3°F26.8°C 66.6°F19.2°C 63% Calm Calm 1.0 mph1.6 kmh 30.05 in1017.6 mb 0.00 in0.0 mm 0.00 in0.0 mm 0.04 in1.0 mm
07:20 PM 80.5°F26.9°C 66.3°F19.1°C 62% Calm Calm 1.0 mph1.6 kmh 30.05 in1017.6 mb 0.00 in0.0 mm 0.00 in0.0 mm 0.04 in1.0 mm
07:15 PM 80.9°F27.2°C 66.2°F19.0°C 61% Calm Calm -- 30.05 in1017.6 mb 0.00 in0.0 mm 0.00 in0.0 mm 0.04 in1.0 mm
07:10 PM 81.1°F27.3°C 66.9°F19.4°C 62% Calm Calm 2.0 mph3.2 kmh 30.05 in1017.6 mb 0.00 in0.0 mm 0.00 in0.0 mm 0.04 in1.0 mm
07:05 PM 81.2°F27.3°C 66.5°F19.2°C 61% Calm Calm 2.0 mph3.2 kmh 30.05 in1017.6 mb 0.00 in0.0 mm 0.00 in0.0 mm 0.04 in1.0 mm
07:00 PM 81.4°F27.4°C 67.1°F19.5°C 62% Calm Calm 2.0 mph3.2 kmh 30.05 in1017.6 mb 0.00 in0.0 mm 0.00 in0.0 mm 0.04 in1.0 mm
06:55 PM 81.6°F27.6°C 66.9°F19.4°C 61% Calm Calm 2.0 mph3.2 kmh 30.05 in1017.6 mb 0.00 in0.0 mm 0.00 in0.0 mm 0.04 in1.0 mm
06:50 PM 81.8°F27.7°C 66.1°F18.9°C 59% Calm Calm 2.0 mph3.2 kmh 30.05 in1017.6 mb 0.00 in0.0 mm 0.00 in0.0 mm 0.04 in1.0 mm
06:45 PM 82.2°F27.9°C 65.5°F18.6°C 57% 1.0 mph SSE1.6 kmh SSE 1.0 mph1.6 kmh 30.05 in1017.6 mb 0.00 in0.0 mm 0.00 in0.0 mm 0.04 in1.0 mm
06:40 PM 82.6°F28.1°C 66.3°F19.1°C 58% Calm Calm 2.0 mph3.2 kmh 30.04 in1017.3 mb 0.00 in0.0 mm 0.00 in0.0 mm 0.04 in1.0 mm
06:35 PM 83.2°F28.4°C 65.4°F18.6°C 55% Calm Calm 2.0 mph3.2 kmh 30.04 in1017.3 mb 0.00 in0.0 mm 0.00 in0.0 mm 0.04 in1.0 mm
06:30 PM 83.6°F28.7°C 65.7°F18.7°C 55% Calm Calm -- 30.04 in1017.3 mb 0.00 in0.0 mm 0.00 in0.0 mm 0.04 in1.0 mm
06:25 PM 83.8°F28.8°C 65.4°F18.6°C 54% 2.0 mph SSE3.2 kmh SSE 3.0 mph4.8 kmh 30.04 in1017.3 mb 0.00 in0.0 mm 0.00 in0.0 mm 0.04 in1.0 mm
06:20 PM 83.8°F28.8°C 64.9°F18.3°C 53% Calm Calm 1.0 mph1.6 kmh 30.04 in1017.3 mb 0.00 in0.0 mm 0.00 in0.0 mm 0.04 in1.0 mm
06:15 PM 83.8°F28.8°C 65.4°F18.6°C 54% Calm Calm -- 30.04 in1017.3 mb 0.00 in0.0 mm 0.00 in0.0 mm 0.04 in1.0 mm
06:10 PM 83.8°F28.8°C 65.4°F18.6°C 54% Calm Calm 1.0 mph1.6 kmh 30.05 in1017.6 mb 0.00 in0.0 mm 0.00 in0.0 mm 0.04 in1.0 mm
06:05 PM 83.6°F28.7°C 66.3°F19.1°C 56% Calm Calm 1.0 mph1.6 kmh 30.05 in1017.6 mb 0.00 in0.0 mm 0.00 in0.0 mm 0.04 in1.0 mm
06:00 PM 83.6°F28.7°C 66.3°F19.1°C 56% Calm Calm -- 30.05 in1017.6 mb 0.00 in0.0 mm 0.00 in0.0 mm 0.04 in1.0 mm
05:55 PM 83.6°F28.7°C 65.7°F18.7°C 55% Calm Calm 3.0 mph4.8 kmh 30.05 in1017.6 mb 0.00 in0.0 mm 0.00 in0.0 mm 0.04 in1.0 mm
05:50 PM 83.2°F28.4°C 65.4°F18.6°C 55% 1.0 mph S1.6 kmh S 1.0 mph1.6 kmh 30.05 in1017.6 mb 0.00 in0.0 mm 0.00 in0.0 mm 0.04 in1.0 mm
05:45 PM 82.6°F28.1°C 65.3°F18.5°C 56% Calm Calm -- 30.05 in1017.6 mb 0.00 in0.0 mm 0.00 in0.0 mm 0.04 in1.0 mm
05:40 PM 82.4°F28.0°C 65.7°F18.7°C 57% 1.0 mph SSW1.6 kmh SSW 3.0 mph4.8 kmh 30.06 in1017.9 mb 0.00 in0.0 mm 0.00 in0.0 mm 0.04 in1.0 mm
05:35 PM 82.2°F27.9°C 66.0°F18.9°C 58% 1.0 mph SSW1.6 kmh SSW 3.0 mph4.8 kmh 30.06 in1017.9 mb 0.00 in0.0 mm 0.00 in0.0 mm 0.04 in1.0 mm
05:30 PM 81.6°F27.6°C 64.9°F18.3°C 57% Calm Calm -- 30.06 in1017.9 mb 0.00 in0.0 mm 0.00 in0.0 mm 0.04 in1.0 mm
05:25 PM 81.2°F27.3°C 67.0°F19.4°C 62% 1.0 mph S1.6 kmh S 3.0 mph4.8 kmh 30.06 in1017.9 mb 0.00 in0.0 mm 0.00 in0.0 mm 0.04 in1.0 mm
05:20 PM 81.2°F27.3°C 66.0°F18.9°C 60% Calm Calm 3.0 mph4.8 kmh 30.06 in1017.9 mb 0.00 in0.0 mm 0.00 in0.0 mm 0.04 in1.0 mm
05:15 PM 81.6°F27.6°C 67.3°F19.6°C 62% Calm Calm -- 30.06 in1017.9 mb 0.00 in0.0 mm 0.00 in0.0 mm 0.04 in1.0 mm
05:10 PM 81.8°F27.7°C 67.5°F19.7°C 62% Calm Calm 5.0 mph8.0 kmh 30.07 in1018.3 mb 0.00 in0.0 mm 0.00 in0.0 mm 0.04 in1.0 mm
05:05 PM 81.8°F27.7°C 68.0°F20.0°C 63% Calm Calm 5.0 mph8.0 kmh 30.07 in1018.3 mb 0.00 in0.0 mm 0.00 in0.0 mm 0.04 in1.0 mm
05:00 PM 81.6°F27.6°C 67.8°F19.9°C 63% Calm Calm -- 30.07 in1018.3 mb 0.00 in0.0 mm 0.00 in0.0 mm 0.04 in1.0 mm
04:55 PM 81.6°F27.6°C 67.8°F19.9°C 63% Calm Calm 2.0 mph3.2 kmh 30.07 in1018.3 mb 0.00 in0.0 mm 0.00 in0.0 mm 0.04 in1.0 mm
04:50 PM 81.6°F27.6°C 68.7°F20.4°C 65% Calm Calm 1.0 mph1.6 kmh 30.07 in1018.3 mb 0.00 in0.0 mm 0.00 in0.0 mm 0.04 in1.0 mm
04:45 PM 81.8°F27.7°C 68.4°F20.2°C 64% 1.0 mph S1.6 kmh S 1.0 mph1.6 kmh 30.07 in1018.3 mb 0.00 in0.0 mm 0.00 in0.0 mm 0.04 in1.0 mm
04:40 PM 81.8°F27.7°C 69.3°F20.7°C 66% Calm Calm 1.0 mph1.6 kmh 30.07 in1018.3 mb 0.00 in0.0 mm 0.00 in0.0 mm 0.04 in1.0 mm
04:35 PM 81.6°F27.6°C 68.7°F20.4°C 65% Calm Calm 1.0 mph1.6 kmh 30.07 in1018.3 mb 0.00 in0.0 mm 0.00 in0.0 mm 0.04 in1.0 mm
04:30 PM 82.0°F27.8°C 68.6°F20.3°C 64% Calm Calm -- 30.07 in1018.3 mb 0.00 in0.0 mm 0.00 in0.0 mm 0.04 in1.0 mm
04:25 PM 82.0°F27.8°C 68.6°F20.3°C 64% 2.0 mph SSE3.2 kmh SSE 3.0 mph4.8 kmh 30.07 in1018.3 mb 0.00 in0.0 mm 0.00 in0.0 mm 0.04 in1.0 mm
04:20 PM 82.0°F27.8°C 68.2°F20.1°C 63% Calm Calm 2.0 mph3.2 kmh 30.07 in1018.3 mb 0.00 in0.0 mm 0.00 in0.0 mm 0.04 in1.0 mm
04:15 PM 81.8°F27.7°C 68.9°F20.5°C 65% Calm Calm -- 30.07 in1018.3 mb 0.00 in0.0 mm 0.00 in0.0 mm 0.04 in1.0 mm
04:10 PM 81.6°F27.6°C 68.7°F20.4°C 65% Calm Calm 2.0 mph3.2 kmh 30.08 in1018.6 mb 0.00 in0.0 mm 0.00 in0.0 mm 0.04 in1.0 mm
04:05 PM 81.6°F27.6°C 67.8°F19.9°C 63% Calm Calm 2.0 mph3.2 kmh 30.08 in1018.6 mb 0.00 in0.0 mm 0.00 in0.0 mm 0.04 in1.0 mm
04:00 PM 81.6°F27.6°C 67.8°F19.9°C 63% Calm Calm -- 30.08 in1018.6 mb 0.00 in0.0 mm 0.00 in0.0 mm 0.04 in1.0 mm
03:55 PM 81.6°F27.6°C 68.3°F20.2°C 64% 2.0 mph SE3.2 kmh SE 3.0 mph4.8 kmh 30.08 in1018.6 mb 0.00 in0.0 mm 0.00 in0.0 mm 0.04 in1.0 mm
03:50 PM 81.6°F27.6°C 67.8°F19.9°C 63% Calm Calm 2.0 mph3.2 kmh 30.08 in1018.6 mb 0.00 in0.0 mm 0.00 in0.0 mm 0.04 in1.0 mm
03:45 PM 81.8°F27.7°C 68.0°F20.0°C 63% 1.0 mph SE1.6 kmh SE 2.0 mph3.2 kmh 30.08 in1018.6 mb 0.00 in0.0 mm 0.00 in0.0 mm 0.04 in1.0 mm
03:40 PM 81.8°F27.7°C 67.5°F19.7°C 62% Calm Calm 3.0 mph4.8 kmh 30.08 in1018.6 mb 0.00 in0.0 mm 0.00 in0.0 mm 0.04 in1.0 mm
03:35 PM 81.6°F27.6°C 67.8°F19.9°C 63% Calm Calm 3.0 mph4.8 kmh 30.08 in1018.6 mb 0.00 in0.0 mm 0.00 in0.0 mm 0.04 in1.0 mm
03:30 PM 81.4°F27.4°C 68.5°F20.3°C 65% Calm Calm 1.0 mph1.6 kmh 30.08 in1018.6 mb 0.00 in0.0 mm 0.00 in0.0 mm 0.04 in1.0 mm
03:25 PM 81.4°F27.4°C 69.0°F20.6°C 66% 5.0 mph SSE8.0 kmh SSE 5.0 mph8.0 kmh 30.09 in1019.0 mb 0.00 in0.0 mm 0.00 in0.0 mm 0.04 in1.0 mm
03:20 PM 81.2°F27.3°C 68.3°F20.2°C 65% Calm Calm 1.0 mph1.6 kmh 30.09 in1019.0 mb 0.00 in0.0 mm 0.00 in0.0 mm 0.04 in1.0 mm
03:15 PM 81.1°F27.3°C 66.4°F19.1°C 61% Calm Calm -- 30.09 in1019.0 mb 0.00 in0.0 mm 0.00 in0.0 mm 0.04 in1.0 mm
03:10 PM 81.2°F27.3°C 67.0°F19.4°C 62% Calm Calm 4.0 mph6.4 kmh 30.09 in1019.0 mb 0.00 in0.0 mm 0.00 in0.0 mm 0.04 in1.0 mm
03:05 PM 80.9°F27.2°C 68.9°F20.5°C 67% Calm Calm 4.0 mph6.4 kmh 30.09 in1019.0 mb 0.00 in0.0 mm 0.00 in0.0 mm 0.04 in1.0 mm
03:00 PM 80.7°F27.1°C 67.9°F19.9°C 65% 4.0 mph SE6.4 kmh SE 4.0 mph6.4 kmh 30.09 in1019.0 mb 0.00 in0.0 mm 0.00 in0.0 mm 0.04 in1.0 mm
02:55 PM 80.3°F26.8°C 68.8°F20.4°C 68% Calm Calm 2.0 mph3.2 kmh 30.14 in1020.7 mb 0.00 in0.0 mm 0.00 in0.0 mm 0.04 in1.0 mm
02:50 PM 80.3°F26.8°C 68.4°F20.2°C 67% Calm Calm 2.0 mph3.2 kmh 30.14 in1020.7 mb 0.00 in0.0 mm 0.00 in0.0 mm 0.04 in1.0 mm
02:45 PM 81.8°F27.7°C 68.0°F20.0°C 63% Calm Calm -- 30.14 in1020.7 mb 0.00 in0.0 mm 0.00 in0.0 mm 0.04 in1.0 mm
02:40 PM 81.8°F27.7°C 68.0°F20.0°C 63% Calm Calm -- 30.14 in1020.7 mb 0.00 in0.0 mm 0.00 in0.0 mm 0.04 in1.0 mm
02:35 PM 81.8°F27.7°C 68.0°F20.0°C 63% Calm Calm -- 30.14 in1020.7 mb 0.00 in0.0 mm 0.00 in0.0 mm 0.04 in1.0 mm
02:30 PM 81.8°F27.7°C 68.0°F20.0°C 63% Calm Calm -- 30.14 in1020.7 mb 0.00 in0.0 mm 0.00 in0.0 mm 0.04 in1.0 mm
02:25 PM 81.8°F27.7°C 68.0°F20.0°C 63% Calm Calm -- 30.15 in1021.0 mb 0.00 in0.0 mm 0.00 in0.0 mm 0.04 in1.0 mm
02:20 PM 81.8°F27.7°C 68.0°F20.0°C 63% Calm Calm -- 30.15 in1021.0 mb 0.00 in0.0 mm 0.00 in0.0 mm 0.04 in1.0 mm
02:15 PM 81.8°F27.7°C 68.0°F20.0°C 63% Calm Calm -- 30.15 in1021.0 mb 0.00 in0.0 mm 0.00 in0.0 mm 0.04 in1.0 mm
02:10 PM 81.8°F27.7°C 68.0°F20.0°C 63% Calm Calm -- 30.15 in1021.0 mb 0.00 in0.0 mm 0.00 in0.0 mm 0.04 in1.0 mm
02:05 PM 81.8°F27.7°C 68.0°F20.0°C 63% Calm Calm -- 30.15 in1021.0 mb 0.00 in0.0 mm 0.00 in0.0 mm 0.04 in1.0 mm
02:00 PM 81.8°F27.7°C 68.0°F20.0°C 63% Calm Calm -- 30.15 in1021.0 mb 0.00 in0.0 mm 0.00 in0.0 mm 0.04 in1.0 mm
01:55 PM 81.8°F27.7°C 68.0°F20.0°C 63% Calm Calm 1.0 mph1.6 kmh 30.10 in1019.3 mb 0.00 in0.0 mm 0.00 in0.0 mm 0.04 in1.0 mm
01:50 PM 81.8°F27.7°C 68.0°F20.0°C 63% Calm Calm 1.0 mph1.6 kmh 30.10 in1019.3 mb 0.00 in0.0 mm 0.00 in0.0 mm 0.04 in1.0 mm
01:45 PM 81.8°F27.7°C 68.0°F20.0°C 63% 1.0 mph SSE1.6 kmh SSE 1.0 mph1.6 kmh 30.10 in1019.3 mb 0.00 in0.0 mm 0.00 in0.0 mm 0.04 in1.0 mm
01:40 PM 81.8°F27.7°C 68.0°F20.0°C 63% Calm Calm -- 30.10 in1019.3 mb 0.00 in0.0 mm 0.00 in0.0 mm 0.04 in1.0 mm
01:35 PM 81.8°F27.7°C 68.0°F20.0°C 63% Calm Calm -- 30.10 in1019.3 mb 0.00 in0.0 mm 0.00 in0.0 mm 0.04 in1.0 mm
01:30 PM 81.8°F27.7°C 66.6°F19.2°C 60% Calm Calm -- 30.10 in1019.3 mb 0.00 in0.0 mm 0.00 in0.0 mm 0.04 in1.0 mm
01:25 PM 81.8°F27.7°C 66.6°F19.2°C 60% Calm Calm 2.0 mph3.2 kmh 30.11 in1019.6 mb 0.00 in0.0 mm 0.00 in0.0 mm 0.04 in1.0 mm
01:20 PM 81.8°F27.7°C 65.6°F18.7°C 58% Calm Calm 2.0 mph3.2 kmh 30.11 in1019.6 mb 0.00 in0.0 mm 0.00 in0.0 mm 0.04 in1.0 mm
01:15 PM 82.0°F27.8°C 67.7°F19.8°C 62% Calm Calm -- 30.11 in1019.6 mb 0.00 in0.0 mm 0.00 in0.0 mm 0.04 in1.0 mm
01:10 PM 81.8°F27.7°C 66.1°F18.9°C 59% Calm Calm 3.0 mph4.8 kmh 30.12 in1020.0 mb 0.00 in0.0 mm 0.00 in0.0 mm 0.04 in1.0 mm
01:05 PM 81.4°F27.4°C 65.7°F18.7°C 59% Calm Calm 3.0 mph4.8 kmh 30.12 in1020.0 mb 0.00 in0.0 mm 0.00 in0.0 mm 0.04 in1.0 mm
01:00 PM 81.6°F27.6°C 65.9°F18.8°C 59% Calm Calm -- 30.12 in1020.0 mb 0.00 in0.0 mm 0.00 in0.0 mm 0.04 in1.0 mm
12:55 PM 81.6°F27.6°C 65.4°F18.6°C 58% Calm Calm 3.0 mph4.8 kmh 30.13 in1020.3 mb 0.00 in0.0 mm 0.00 in0.0 mm 0.04 in1.0 mm
12:50 PM 81.4°F27.4°C 65.7°F18.7°C 59% Calm Calm 1.0 mph1.6 kmh 30.13 in1020.3 mb 0.00 in0.0 mm 0.00 in0.0 mm 0.04 in1.0 mm
12:45 PM 81.2°F27.3°C 66.5°F19.2°C 61% 1.0 mph SE1.6 kmh SE 1.0 mph1.6 kmh 30.13 in1020.3 mb 0.00 in0.0 mm 0.00 in0.0 mm 0.04 in1.0 mm
12:40 PM 81.2°F27.3°C 68.3°F20.2°C 65% Calm Calm 5.0 mph8.0 kmh 30.13 in1020.3 mb 0.00 in0.0 mm 0.00 in0.0 mm 0.04 in1.0 mm
12:35 PM 81.2°F27.3°C 67.0°F19.4°C 62% Calm Calm 1.0 mph1.6 kmh 30.13 in1020.3 mb 0.00 in0.0 mm 0.00 in0.0 mm 0.04 in1.0 mm
12:30 PM 81.1°F27.3°C 67.3°F19.6°C 63% Calm Calm 1.0 mph1.6 kmh 30.13 in1020.3 mb 0.00 in0.0 mm 0.00 in0.0 mm 0.04 in1.0 mm
12:25 PM 80.7°F27.1°C 66.5°F19.2°C 62% Calm Calm 2.0 mph3.2 kmh 30.13 in1020.3 mb 0.00 in0.0 mm 0.00 in0.0 mm 0.04 in1.0 mm
12:20 PM 80.3°F26.8°C 65.6°F18.7°C 61% Calm Calm 2.0 mph3.2 kmh 30.13 in1020.3 mb 0.00 in0.0 mm 0.00 in0.0 mm 0.04 in1.0 mm
12:15 PM 80.1°F26.7°C 65.9°F18.8°C 62% Calm Calm -- 30.13 in1020.3 mb 0.00 in0.0 mm 0.00 in0.0 mm 0.04 in1.0 mm
12:10 PM 80.1°F26.7°C 66.4°F19.1°C 63% Calm Calm 2.0 mph3.2 kmh 30.13 in1020.3 mb 0.00 in0.0 mm 0.00 in0.0 mm 0.04 in1.0 mm
12:05 PM 80.1°F26.7°C 65.5°F18.6°C 61% Calm Calm 2.0 mph3.2 kmh 30.13 in1020.3 mb 0.00 in0.0 mm 0.00 in0.0 mm 0.04 in1.0 mm
12:00 PM 80.3°F26.8°C 66.6°F19.2°C 63% Calm Calm 2.0 mph3.2 kmh 30.13 in1020.3 mb 0.00 in0.0 mm 0.00 in0.0 mm 0.04 in1.0 mm
11:55 AM 79.9°F26.6°C 65.7°F18.7°C 62% Calm Calm 3.0 mph4.8 kmh 30.14 in1020.7 mb 0.00 in0.0 mm 0.00 in0.0 mm 0.04 in1.0 mm
11:50 AM 79.9°F26.6°C 65.7°F18.7°C 62% 1.0 mph NW1.6 kmh NW 3.0 mph4.8 kmh 30.14 in1020.7 mb 0.00 in0.0 mm 0.00 in0.0 mm 0.04 in1.0 mm
11:45 AM 79.8°F26.6°C 65.6°F18.7°C 62% Calm Calm -- 30.14 in1020.7 mb 0.00 in0.0 mm 0.00 in0.0 mm 0.04 in1.0 mm
11:40 AM 79.8°F26.6°C 65.2°F18.4°C 61% Calm Calm 1.0 mph1.6 kmh 30.14 in1020.7 mb 0.00 in0.0 mm 0.00 in0.0 mm 0.04 in1.0 mm
11:35 AM 79.9°F26.6°C 66.7°F19.3°C 64% Calm Calm 1.0 mph1.6 kmh 30.14 in1020.7 mb 0.00 in0.0 mm 0.00 in0.0 mm 0.04 in1.0 mm
11:30 AM 79.8°F26.6°C 66.1°F18.9°C 63% Calm Calm -- 30.14 in1020.7 mb 0.00 in0.0 mm 0.00 in0.0 mm 0.04 in1.0 mm
11:25 AM 79.6°F26.4°C 66.8°F19.3°C 65% Calm Calm 2.0 mph3.2 kmh 30.14 in1020.7 mb 0.00 in0.0 mm 0.00 in0.0 mm 0.04 in1.0 mm
11:20 AM 79.8°F26.6°C 65.2°F18.4°C 61% Calm Calm 2.0 mph3.2 kmh 30.14 in1020.7 mb 0.00 in0.0 mm 0.00 in0.0 mm 0.04 in1.0 mm
11:15 AM 80.3°F26.8°C 66.1°F18.9°C 62% Calm Calm -- 30.14 in1020.7 mb 0.00 in0.0 mm 0.00 in0.0 mm 0.04 in1.0 mm
11:10 AM 80.5°F26.9°C 66.8°F19.3°C 63% Calm Calm 1.0 mph1.6 kmh 30.14 in1020.7 mb 0.00 in0.0 mm 0.00 in0.0 mm 0.04 in1.0 mm
11:05 AM 80.5°F26.9°C 65.8°F18.8°C 61% Calm Calm 1.0 mph1.6 kmh 30.14 in1020.7 mb 0.00 in0.0 mm 0.00 in0.0 mm 0.04 in1.0 mm
11:00 AM 80.9°F27.2°C 66.7°F19.3°C 62% Calm Calm -- 30.14 in1020.7 mb 0.00 in0.0 mm 0.00 in0.0 mm 0.04 in1.0 mm
10:55 AM 80.7°F27.1°C 67.0°F19.4°C 63% Calm Calm 4.0 mph6.4 kmh 30.14 in1020.7 mb 0.00 in0.0 mm 0.00 in0.0 mm 0.04 in1.0 mm
10:50 AM 80.5°F26.9°C 67.7°F19.8°C 65% Calm Calm 4.0 mph6.4 kmh 30.14 in1020.7 mb 0.00 in0.0 mm 0.00 in0.0 mm 0.04 in1.0 mm
10:45 AM 80.3°F26.8°C 67.0°F19.4°C 64% Calm Calm -- 30.14 in1020.7 mb 0.00 in0.0 mm 0.00 in0.0 mm 0.04 in1.0 mm
10:40 AM 80.3°F26.8°C 67.5°F19.7°C 65% Calm Calm 2.0 mph3.2 kmh 30.14 in1020.7 mb 0.00 in0.0 mm 0.00 in0.0 mm 0.04 in1.0 mm
10:35 AM 80.3°F26.8°C 67.0°F19.4°C 64% Calm Calm 2.0 mph3.2 kmh 30.14 in1020.7 mb 0.00 in0.0 mm 0.00 in0.0 mm 0.04 in1.0 mm
10:30 AM 80.5°F26.9°C 67.7°F19.8°C 65% 1.0 mph ESE1.6 kmh ESE 2.0 mph3.2 kmh 30.14 in1020.7 mb 0.00 in0.0 mm 0.00 in0.0 mm 0.04 in1.0 mm
10:25 AM 79.8°F26.6°C 67.4°F19.7°C 66% Calm Calm 3.0 mph4.8 kmh 30.15 in1021.0 mb 0.00 in0.0 mm 0.00 in0.0 mm 0.04 in1.0 mm
10:20 AM 79.6°F26.4°C 68.1°F20.1°C 68% Calm Calm 3.0 mph4.8 kmh 30.15 in1021.0 mb 0.00 in0.0 mm 0.00 in0.0 mm 0.04 in1.0 mm
10:15 AM 77.2°F25.1°C 67.9°F19.9°C 73% Calm Calm -- 30.15 in1021.0 mb 0.00 in0.0 mm 0.00 in0.0 mm 0.04 in1.0 mm
10:10 AM 77.2°F25.1°C 67.9°F19.9°C 73% Calm Calm -- 30.15 in1021.0 mb 0.00 in0.0 mm 0.00 in0.0 mm 0.04 in1.0 mm
10:05 AM 77.2°F25.1°C 67.9°F19.9°C 73% Calm Calm -- 30.15 in1021.0 mb 0.00 in0.0 mm 0.00 in0.0 mm 0.04 in1.0 mm
10:00 AM 77.2°F25.1°C 67.9°F19.9°C 73% Calm Calm -- 30.15 in1021.0 mb 0.00 in0.0 mm 0.00 in0.0 mm 0.04 in1.0 mm
09:55 AM 77.2°F25.1°C 67.9°F19.9°C 73% Calm Calm -- 30.15 in1021.0 mb 0.00 in0.0 mm 0.00 in0.0 mm 0.04 in1.0 mm
09:50 AM 77.2°F25.1°C 67.9°F19.9°C 73% Calm Calm -- 30.15 in1021.0 mb 0.00 in0.0 mm 0.00 in0.0 mm 0.04 in1.0 mm
09:45 AM 77.2°F25.1°C 67.9°F19.9°C 73% Calm Calm -- 30.15 in1021.0 mb 0.00 in0.0 mm 0.00 in0.0 mm 0.04 in1.0 mm
09:40 AM 77.2°F25.1°C 67.9°F19.9°C 73% Calm Calm 1.0 mph1.6 kmh 30.15 in1021.0 mb 0.00 in0.0 mm 0.00 in0.0 mm 0.04 in1.0 mm
09:35 AM 77.2°F25.1°C 67.9°F19.9°C 73% Calm Calm 1.0 mph1.6 kmh 30.15 in1021.0 mb 0.00 in0.0 mm 0.00 in0.0 mm 0.04 in1.0 mm
09:30 AM 76.7°F24.8°C 67.4°F19.7°C 73% Calm Calm -- 30.15 in1021.0 mb 0.00 in0.0 mm 0.00 in0.0 mm 0.04 in1.0 mm
09:25 AM 76.5°F24.7°C 67.2°F19.6°C 73% Calm Calm 2.0 mph3.2 kmh 30.15 in1021.0 mb 0.00 in0.0 mm 0.00 in0.0 mm 0.04 in1.0 mm
09:20 AM 75.3°F24.1°C 66.5°F19.2°C 74% Calm Calm 2.0 mph3.2 kmh 30.15 in1021.0 mb 0.00 in0.0 mm 0.00 in0.0 mm 0.04 in1.0 mm
09:15 AM 75.3°F24.1°C 66.5°F19.2°C 74% Calm Calm -- 30.15 in1021.0 mb 0.00 in0.0 mm 0.00 in0.0 mm 0.04 in1.0 mm
09:10 AM 75.3°F24.1°C 66.5°F19.2°C 74% Calm Calm 1.0 mph1.6 kmh 30.15 in1021.0 mb 0.00 in0.0 mm 0.00 in0.0 mm 0.04 in1.0 mm
09:05 AM 74.9°F23.8°C 66.1°F18.9°C 74% Calm Calm 1.0 mph1.6 kmh 30.15 in1021.0 mb 0.00 in0.0 mm 0.00 in0.0 mm 0.04 in1.0 mm
09:00 AM 74.4°F23.6°C 66.0°F18.9°C 75% Calm Calm 1.0 mph1.6 kmh 30.15 in1021.0 mb 0.00 in0.0 mm 0.00 in0.0 mm 0.04 in1.0 mm
08:55 AM 74.0°F23.3°C 65.6°F18.7°C 75% Calm Calm 1.0 mph1.6 kmh 30.15 in1021.0 mb 0.00 in0.0 mm 0.00 in0.0 mm 0.04 in1.0 mm
08:50 AM 69.8°F21.0°C 65.8°F18.8°C 87% Calm Calm -- 30.15 in1021.0 mb 0.00 in0.0 mm 0.00 in0.0 mm 0.04 in1.0 mm
08:45 AM 69.8°F21.0°C 65.8°F18.8°C 87% Calm Calm -- 30.15 in1021.0 mb 0.00 in0.0 mm 0.00 in0.0 mm 0.04 in1.0 mm
08:40 AM 69.8°F21.0°C 65.8°F18.8°C 87% Calm Calm -- 30.15 in1021.0 mb 0.00 in0.0 mm 0.00 in0.0 mm 0.04 in1.0 mm
08:35 AM 69.8°F21.0°C 65.8°F18.8°C 87% Calm Calm -- 30.15 in1021.0 mb 0.00 in0.0 mm 0.00 in0.0 mm 0.04 in1.0 mm
08:30 AM 69.8°F21.0°C 65.8°F18.8°C 87% Calm Calm -- 30.15 in1021.0 mb 0.00 in0.0 mm 0.00 in0.0 mm 0.04 in1.0 mm
08:25 AM 69.8°F21.0°C 65.8°F18.8°C 87% Calm Calm -- 30.14 in1020.7 mb 0.00 in0.0 mm 0.00 in0.0 mm 0.04 in1.0 mm
08:20 AM 69.8°F21.0°C 65.8°F18.8°C 87% Calm Calm -- 30.14 in1020.7 mb 0.00 in0.0 mm 0.00 in0.0 mm 0.04 in1.0 mm
08:15 AM 69.8°F21.0°C 65.8°F18.8°C 87% Calm Calm -- 30.14 in1020.7 mb 0.00 in0.0 mm 0.00 in0.0 mm 0.04 in1.0 mm
08:10 AM 69.8°F21.0°C 65.8°F18.8°C 87% Calm Calm -- 30.14 in1020.7 mb 0.00 in0.0 mm 0.00 in0.0 mm 0.04 in1.0 mm
08:05 AM 69.8°F21.0°C 65.8°F18.8°C 87% Calm Calm -- 30.14 in1020.7 mb 0.00 in0.0 mm 0.00 in0.0 mm 0.04 in1.0 mm
08:00 AM 69.8°F21.0°C 65.8°F18.8°C 87% Calm Calm -- 30.14 in1020.7 mb 0.00 in0.0 mm 0.00 in0.0 mm 0.04 in1.0 mm
07:55 AM 69.8°F21.0°C 65.8°F18.8°C 87% Calm Calm -- 30.13 in1020.3 mb 0.00 in0.0 mm 0.00 in0.0 mm 0.04 in1.0 mm
07:50 AM 69.8°F21.0°C 65.8°F18.8°C 87% Calm Calm -- 30.13 in1020.3 mb 0.00 in0.0 mm 0.00 in0.0 mm 0.04 in1.0 mm
07:45 AM 69.8°F21.0°C 65.8°F18.8°C 87% Calm Calm -- 30.13 in1020.3 mb 0.00 in0.0 mm 0.00 in0.0 mm 0.04 in1.0 mm
07:40 AM 69.8°F21.0°C 65.8°F18.8°C 87% Calm Calm -- 30.13 in1020.3 mb 0.00 in0.0 mm 0.00 in0.0 mm 0.04 in1.0 mm
07:35 AM 69.8°F21.0°C 65.8°F18.8°C 87% Calm Calm -- 30.13 in1020.3 mb 0.00 in0.0 mm 0.00 in0.0 mm 0.04 in1.0 mm
07:30 AM 69.8°F21.0°C 65.8°F18.8°C 87% Calm Calm -- 30.13 in1020.3 mb 0.00 in0.0 mm 0.00 in0.0 mm 0.04 in1.0 mm
07:25 AM 69.8°F21.0°C 65.8°F18.8°C 87% Calm Calm -- 30.12 in1020.0 mb 0.00 in0.0 mm 0.00 in0.0 mm 0.04 in1.0 mm
07:20 AM 69.8°F21.0°C 65.8°F18.8°C 87% Calm Calm -- 30.12 in1020.0 mb 0.00 in0.0 mm 0.00 in0.0 mm 0.04 in1.0 mm
07:15 AM 69.8°F21.0°C 65.8°F18.8°C 87% Calm Calm -- 30.12 in1020.0 mb 0.00 in0.0 mm 0.00 in0.0 mm 0.04 in1.0 mm
07:10 AM 69.8°F21.0°C 65.8°F18.8°C 87% Calm Calm -- 30.11 in1019.6 mb 0.00 in0.0 mm 0.00 in0.0 mm 0.04 in1.0 mm
07:05 AM 69.8°F21.0°C 65.8°F18.8°C 87% Calm Calm -- 30.11 in1019.6 mb 0.00 in0.0 mm 0.00 in0.0 mm 0.04 in1.0 mm
07:00 AM 69.8°F21.0°C 65.8°F18.8°C 87% Calm Calm -- 30.11 in1019.6 mb 0.00 in0.0 mm 0.00 in0.0 mm 0.04 in1.0 mm
06:55 AM 69.8°F21.0°C 65.8°F18.8°C 87% Calm Calm -- 30.10 in1019.3 mb 0.00 in0.0 mm 0.00 in0.0 mm 0.04 in1.0 mm
06:50 AM 69.8°F21.0°C 65.8°F18.8°C 87% Calm Calm -- 30.10 in1019.3 mb 0.00 in0.0 mm 0.00 in0.0 mm 0.04 in1.0 mm
06:45 AM 69.8°F21.0°C 65.8°F18.8°C 87% Calm Calm -- 30.10 in1019.3 mb 0.00 in0.0 mm 0.00 in0.0 mm 0.04 in1.0 mm
06:40 AM 69.8°F21.0°C 65.8°F18.8°C 87% Calm Calm -- 30.10 in1019.3 mb 0.00 in0.0 mm 0.00 in0.0 mm 0.04 in1.0 mm
06:35 AM 69.8°F21.0°C 65.8°F18.8°C 87% Calm Calm -- 30.10 in1019.3 mb 0.00 in0.0 mm 0.00 in0.0 mm 0.04 in1.0 mm
06:30 AM 69.8°F21.0°C 65.8°F18.8°C 87% Calm Calm -- 30.10 in1019.3 mb 0.00 in0.0 mm 0.00 in0.0 mm 0.04 in1.0 mm
06:25 AM 69.8°F21.0°C 65.8°F18.8°C 87% Calm Calm -- 30.09 in1019.0 mb 0.00 in0.0 mm 0.00 in0.0 mm 0.04 in1.0 mm
06:20 AM 69.8°F21.0°C 65.8°F18.8°C 87% Calm Calm -- 30.09 in1019.0 mb 0.00 in0.0 mm 0.00 in0.0 mm 0.04 in1.0 mm
06:15 AM 69.8°F21.0°C 65.8°F18.8°C 87% Calm Calm -- 30.09 in1019.0 mb 0.00 in0.0 mm 0.00 in0.0 mm 0.04 in1.0 mm
06:10 AM 69.8°F21.0°C 65.8°F18.8°C 87% Calm Calm -- 30.08 in1018.6 mb 0.00 in0.0 mm 0.00 in0.0 mm 0.04 in1.0 mm
06:05 AM 69.8°F21.0°C 65.8°F18.8°C 87% Calm Calm -- 30.08 in1018.6 mb 0.00 in0.0 mm 0.00 in0.0 mm 0.04 in1.0 mm
06:00 AM 69.8°F21.0°C 65.8°F18.8°C 87% Calm Calm -- 30.08 in1018.6 mb 0.00 in0.0 mm 0.00 in0.0 mm 0.04 in1.0 mm
05:55 AM 69.8°F21.0°C 65.8°F18.8°C 87% Calm Calm -- 30.08 in1018.6 mb 0.00 in0.0 mm 0.00 in0.0 mm 0.04 in1.0 mm
05:50 AM 69.8°F21.0°C 65.8°F18.8°C 87% Calm Calm -- 30.08 in1018.6 mb 0.00 in0.0 mm 0.00 in0.0 mm 0.04 in1.0 mm
05:45 AM 69.8°F21.0°C 65.8°F18.8°C 87% Calm Calm -- 30.08 in1018.6 mb 0.00 in0.0 mm 0.00 in0.0 mm 0.04 in1.0 mm
05:40 AM 69.8°F21.0°C 65.8°F18.8°C 87% Calm Calm -- 30.07 in1018.3 mb 0.00 in0.0 mm 0.00 in0.0 mm 0.04 in1.0 mm
05:35 AM 69.8°F21.0°C 65.8°F18.8°C 87% Calm Calm -- 30.07 in1018.3 mb 0.00 in0.0 mm 0.00 in0.0 mm 0.04 in1.0 mm
05:30 AM 69.8°F21.0°C 65.8°F18.8°C 87% Calm Calm -- 30.07 in1018.3 mb 0.00 in0.0 mm 0.00 in0.0 mm 0.04 in1.0 mm
05:25 AM 69.8°F21.0°C 65.8°F18.8°C 87% Calm Calm -- 30.07 in1018.3 mb 0.00 in0.0 mm 0.00 in0.0 mm 0.04 in1.0 mm
05:20 AM 69.8°F21.0°C 65.8°F18.8°C 87% Calm Calm -- 30.07 in1018.3 mb 0.00 in0.0 mm 0.00 in0.0 mm 0.04 in1.0 mm
05:15 AM 69.8°F21.0°C 65.8°F18.8°C 87% Calm Calm -- 30.07 in1018.3 mb 0.00 in0.0 mm 0.00 in0.0 mm 0.04 in1.0 mm
05:10 AM 69.8°F21.0°C 65.8°F18.8°C 87% Calm Calm -- 30.06 in1017.9 mb 0.00 in0.0 mm 0.00 in0.0 mm 0.04 in1.0 mm
05:05 AM 69.8°F21.0°C 65.8°F18.8°C 87% Calm Calm -- 30.06 in1017.9 mb 0.00 in0.0 mm 0.00 in0.0 mm 0.04 in1.0 mm
05:00 AM 69.8°F21.0°C 65.8°F18.8°C 87% Calm Calm -- 30.06 in1017.9 mb 0.00 in0.0 mm 0.00 in0.0 mm 0.04 in1.0 mm
04:55 AM 69.8°F21.0°C 65.8°F18.8°C 87% Calm Calm -- 30.06 in1017.9 mb 0.00 in0.0 mm 0.00 in0.0 mm 0.04 in1.0 mm
04:50 AM 69.8°F21.0°C 65.8°F18.8°C 87% Calm Calm -- 30.06 in1017.9 mb 0.00 in0.0 mm 0.00 in0.0 mm 0.04 in1.0 mm
04:45 AM 69.8°F21.0°C 65.8°F18.8°C 87% Calm Calm -- 30.06 in1017.9 mb 0.00 in0.0 mm 0.00 in0.0 mm 0.04 in1.0 mm
04:40 AM 69.8°F21.0°C 65.8°F18.8°C 87% Calm Calm -- 30.06 in1017.9 mb 0.00 in0.0 mm 0.00 in0.0 mm 0.04 in1.0 mm
04:35 AM 69.8°F21.0°C 65.8°F18.8°C 87% Calm Calm -- 30.06 in1017.9 mb 0.00 in0.0 mm 0.00 in0.0 mm 0.04 in1.0 mm
04:30 AM 69.8°F21.0°C 65.8°F18.8°C 87% Calm Calm -- 30.06 in1017.9 mb 0.00 in0.0 mm 0.00 in0.0 mm 0.04 in1.0 mm
04:25 AM 69.8°F21.0°C 65.8°F18.8°C 87% Calm Calm -- 30.06 in1017.9 mb 0.00 in0.0 mm 0.00 in0.0 mm 0.04 in1.0 mm
04:20 AM 69.8°F21.0°C 65.8°F18.8°C 87% Calm Calm -- 30.06 in1017.9 mb 0.00 in0.0 mm 0.00 in0.0 mm 0.04 in1.0 mm
04:15 AM 69.8°F21.0°C 65.8°F18.8°C 87% Calm Calm -- 30.06 in1017.9 mb 0.00 in0.0 mm 0.00 in0.0 mm 0.04 in1.0 mm
04:10 AM 69.8°F21.0°C 65.8°F18.8°C 87% Calm Calm -- 30.06 in1017.9 mb 0.00 in0.0 mm 0.00 in0.0 mm 0.04 in1.0 mm
04:05 AM 69.8°F21.0°C 65.8°F18.8°C 87% Calm Calm -- 30.06 in1017.9 mb 0.00 in0.0 mm 0.00 in0.0 mm 0.04 in1.0 mm
04:00 AM 69.8°F21.0°C 65.8°F18.8°C 87% Calm Calm -- 30.06 in1017.9 mb 0.00 in0.0 mm 0.00 in0.0 mm 0.04 in1.0 mm
03:55 AM 69.8°F21.0°C 65.8°F18.8°C 87% Calm Calm -- 30.06 in1017.9 mb 0.00 in0.0 mm 0.00 in0.0 mm 0.04 in1.0 mm
03:50 AM 69.8°F21.0°C 65.8°F18.8°C 87% Calm Calm -- 30.06 in1017.9 mb 0.00 in0.0 mm 0.00 in0.0 mm 0.04 in1.0 mm
03:45 AM 69.8°F21.0°C 65.8°F18.8°C 87% Calm Calm -- 30.06 in1017.9 mb 0.00 in0.0 mm 0.00 in0.0 mm 0.04 in1.0 mm
03:40 AM 69.8°F21.0°C 65.8°F18.8°C 87% Calm Calm -- 30.06 in1017.9 mb 0.00 in0.0 mm 0.00 in0.0 mm 0.04 in1.0 mm
03:35 AM 69.8°F21.0°C 65.8°F18.8°C 87% Calm Calm -- 30.06 in1017.9 mb 0.00 in0.0 mm 0.00 in0.0 mm 0.04 in1.0 mm
03:30 AM 69.8°F21.0°C 65.8°F18.8°C 87% Calm Calm -- 30.06 in1017.9 mb 0.00 in0.0 mm 0.00 in0.0 mm 0.04 in1.0 mm
03:25 AM 69.8°F21.0°C 65.8°F18.8°C 87% Calm Calm -- 30.06 in1017.9 mb 0.00 in0.0 mm 0.00 in0.0 mm 0.04 in1.0 mm
03:20 AM 69.8°F21.0°C 65.8°F18.8°C 87% Calm Calm -- 30.06 in1017.9 mb 0.00 in0.0 mm 0.00 in0.0 mm 0.04 in1.0 mm
03:15 AM 69.8°F21.0°C 65.8°F18.8°C 87% Calm Calm -- 30.06 in1017.9 mb 0.00 in0.0 mm 0.00 in0.0 mm 0.04 in1.0 mm
03:10 AM 69.8°F21.0°C 65.8°F18.8°C 87% Calm Calm -- 30.06 in1017.9 mb 0.00 in0.0 mm 0.00 in0.0 mm 0.04 in1.0 mm
03:05 AM 69.8°F21.0°C 65.8°F18.8°C 87% Calm Calm -- 30.06 in1017.9 mb 0.00 in0.0 mm 0.00 in0.0 mm 0.04 in1.0 mm
03:00 AM 69.8°F21.0°C 65.8°F18.8°C 87% Calm Calm -- 30.06 in1017.9 mb 0.00 in0.0 mm 0.00 in0.0 mm 0.04 in1.0 mm
02:55 AM 69.8°F21.0°C 65.8°F18.8°C 87% Calm Calm -- 30.06 in1017.9 mb 0.00 in0.0 mm 0.00 in0.0 mm 0.04 in1.0 mm
02:50 AM 69.8°F21.0°C 65.8°F18.8°C 87% Calm Calm -- 30.06 in1017.9 mb 0.00 in0.0 mm 0.00 in0.0 mm 0.04 in1.0 mm
02:45 AM 69.8°F21.0°C 65.8°F18.8°C 87% Calm Calm -- 30.06 in1017.9 mb 0.00 in0.0 mm 0.00 in0.0 mm 0.04 in1.0 mm
02:40 AM 69.8°F21.0°C 65.8°F18.8°C 87% Calm Calm -- 30.07 in1018.3 mb 0.00 in0.0 mm 0.00 in0.0 mm 0.04 in1.0 mm
02:35 AM 69.8°F21.0°C 65.8°F18.8°C 87% Calm Calm -- 30.07 in1018.3 mb 0.00 in0.0 mm 0.00 in0.0 mm 0.04 in1.0 mm
02:30 AM 69.8°F21.0°C 65.8°F18.8°C 87% Calm Calm -- 30.07 in1018.3 mb 0.00 in0.0 mm 0.00 in0.0 mm 0.04 in1.0 mm
02:25 AM 69.8°F21.0°C 65.8°F18.8°C 87% Calm Calm -- 30.08 in1018.6 mb 0.00 in0.0 mm 0.00 in0.0 mm 0.04 in1.0 mm
02:20 AM 69.8°F21.0°C 65.8°F18.8°C 87% Calm Calm -- 30.08 in1018.6 mb 0.00 in0.0 mm 0.00 in0.0 mm 0.04 in1.0 mm
02:15 AM 69.8°F21.0°C 65.8°F18.8°C 87% Calm Calm -- 30.08 in1018.6 mb 0.00 in0.0 mm 0.00 in0.0 mm 0.04 in1.0 mm
02:10 AM 69.8°F21.0°C 65.8°F18.8°C 87% Calm Calm -- 30.08 in1018.6 mb 0.00 in0.0 mm 0.00 in0.0 mm 0.04 in1.0 mm
02:05 AM 69.8°F21.0°C 65.8°F18.8°C 87% Calm Calm -- 30.08 in1018.6 mb 0.00 in0.0 mm 0.00 in0.0 mm 0.04 in1.0 mm
02:00 AM 69.8°F21.0°C 65.8°F18.8°C 87% Calm Calm -- 30.08 in1018.6 mb 0.00 in0.0 mm 0.00 in0.0 mm 0.04 in1.0 mm
01:55 AM 69.8°F21.0°C 65.8°F18.8°C 87% Calm Calm -- 30.08 in1018.6 mb 0.01 in0.3 mm 0.00 in0.0 mm 0.04 in1.0 mm
01:50 AM 69.8°F21.0°C 65.8°F18.8°C 87% Calm Calm -- 30.08 in1018.6 mb 0.01 in0.3 mm 0.00 in0.0 mm 0.04 in1.0 mm
01:45 AM 69.8°F21.0°C 65.8°F18.8°C 87% Calm Calm -- 30.08 in1018.6 mb 0.01 in0.3 mm 0.00 in0.0 mm 0.04 in1.0 mm
01:40 AM 69.8°F21.0°C 65.8°F18.8°C 87% Calm Calm -- 30.10 in1019.3 mb 0.04 in1.0 mm 0.00 in0.0 mm 0.04 in1.0 mm
01:35 AM 69.8°F21.0°C 65.8°F18.8°C 87% Calm Calm -- 30.10 in1019.3 mb 0.04 in1.0 mm 0.00 in0.0 mm 0.04 in1.0 mm
01:30 AM 69.9°F21.1°C 65.9°F18.8°C 87% Calm Calm -- 30.10 in1019.3 mb 0.04 in1.0 mm 0.00 in0.0 mm 0.04 in1.0 mm
01:25 AM 70.1°F21.2°C 66.1°F18.9°C 87% Calm Calm 1.0 mph1.6 kmh 30.11 in1019.6 mb 0.04 in1.0 mm 0.00 in0.0 mm 0.04 in1.0 mm
01:20 AM 70.4°F21.3°C 66.4°F19.1°C 87% Calm Calm 1.0 mph1.6 kmh 30.11 in1019.6 mb 0.04 in1.0 mm 0.00 in0.0 mm 0.04 in1.0 mm
01:15 AM 70.6°F21.4°C 66.6°F19.2°C 87% Calm Calm -- 30.11 in1019.6 mb 0.04 in1.0 mm 0.00 in0.0 mm 0.04 in1.0 mm
01:10 AM 70.9°F21.6°C 66.5°F19.2°C 86% Calm Calm 1.0 mph1.6 kmh 30.11 in1019.6 mb 0.04 in1.0 mm 0.00 in0.0 mm 0.04 in1.0 mm
01:05 AM 71.3°F21.8°C 66.9°F19.4°C 86% Calm Calm 1.0 mph1.6 kmh 30.11 in1019.6 mb 0.04 in1.0 mm 0.00 in0.0 mm 0.04 in1.0 mm
01:00 AM 71.6°F22.0°C 66.9°F19.4°C 85% Calm Calm 1.0 mph1.6 kmh 30.11 in1019.6 mb 0.04 in1.0 mm 0.01 in0.3 mm 0.04 in1.0 mm
12:55 AM 72.0°F22.2°C 67.3°F19.6°C 85% Calm Calm 1.0 mph1.6 kmh 30.12 in1020.0 mb 0.03 in0.8 mm 0.00 in0.0 mm 0.03 in0.8 mm
12:50 AM 72.5°F22.5°C 67.4°F19.7°C 84% Calm Calm -- 30.12 in1020.0 mb 0.03 in0.8 mm 0.00 in0.0 mm 0.03 in0.8 mm
12:45 AM 73.2°F22.9°C 67.7°F19.8°C 83% Calm Calm -- 30.12 in1020.0 mb 0.03 in0.8 mm 0.00 in0.0 mm 0.03 in0.8 mm
12:40 AM 73.7°F23.2°C 67.9°F19.9°C 82% Calm Calm 3.0 mph4.8 kmh 30.12 in1020.0 mb 0.03 in0.8 mm 0.12 in3.0 mm 0.03 in0.8 mm
12:35 AM 74.6°F23.7°C 67.7°F19.8°C 79% Calm Calm 3.0 mph4.8 kmh 30.12 in1020.0 mb 0.02 in0.5 mm 0.24 in6.1 mm 0.02 in0.5 mm
12:30 AM 75.3°F24.1°C 67.2°F19.6°C 76% Calm Calm 1.0 mph1.6 kmh 30.12 in1020.0 mb 0.00 in0.0 mm 0.00 in0.0 mm 0.00 in0.0 mm
12:25 AM 75.4°F24.1°C 67.3°F19.6°C 76% Calm Calm 5.0 mph8.0 kmh 30.10 in1019.3 mb 0.00 in0.0 mm 0.00 in0.0 mm 0.00 in0.0 mm
12:20 AM 75.4°F24.1°C 67.3°F19.6°C 76% Calm Calm 5.0 mph8.0 kmh 30.10 in1019.3 mb 0.00 in0.0 mm 0.00 in0.0 mm 0.00 in0.0 mm
12:15 AM 75.3°F24.1°C 67.2°F19.6°C 76% Calm Calm -- 30.10 in1019.3 mb 0.00 in0.0 mm 0.00 in0.0 mm 0.00 in0.0 mm
12:10 AM 75.3°F24.1°C 67.2°F19.6°C 76% Calm Calm 7.0 mph11.3 kmh 30.10 in1019.3 mb 0.00 in0.0 mm 0.00 in0.0 mm 0.00 in0.0 mm
12:05 AM 75.3°F24.1°C 67.2°F19.6°C 76% Calm Calm 5.0 mph8.0 kmh 30.10 in1019.3 mb 0.00 in0.0 mm 0.00 in0.0 mm 0.00 in0.0 mm
12:00 AM 75.1°F23.9°C 67.4°F19.7°C 77% Calm Calm 5.0 mph8.0 kmh 30.10 in1019.3 mb 0.00 in0.0 mm 0.00 in0.0 mm 0.00 in0.0 mm